createdAt,value
2019-04-05T00:00:11.602Z,8.65
2019-04-05T00:00:52.014Z,8.67
2019-04-05T00:01:32.430Z,8.63
2019-04-05T00:02:12.873Z,8.6
2019-04-05T00:02:53.282Z,8.52
2019-04-05T00:03:33.697Z,8.57
2019-04-05T00:04:14.084Z,8.71
2019-04-05T00:04:54.508Z,8.76
2019-04-05T00:05:34.924Z,8.67
2019-04-05T00:06:15.334Z,8.71
2019-04-05T00:06:55.737Z,8.8
2019-04-05T00:07:36.161Z,8.86
2019-04-05T00:08:16.576Z,8.75
2019-04-05T00:08:57.003Z,8.85
2019-04-05T00:09:37.432Z,8.75
2019-04-05T00:10:17.846Z,8.76
2019-04-05T00:10:58.247Z,8.78
2019-04-05T00:11:38.662Z,8.8
2019-04-05T00:12:19.093Z,8.83
2019-04-05T00:12:59.521Z,8.94
2019-04-05T00:13:39.905Z,8.83
2019-04-05T00:14:20.323Z,8.78
2019-04-05T00:15:14.151Z,8.78
2019-04-05T00:15:41.162Z,8.71
2019-04-05T00:16:21.568Z,8.73
2019-04-05T00:17:01.982Z,8.7
2019-04-05T00:17:42.384Z,8.71
2019-04-05T00:18:22.827Z,8.68
2019-04-05T00:19:03.242Z,8.73
2019-04-05T00:19:43.677Z,8.64
2019-04-05T00:20:24.089Z,8.68
2019-04-05T00:21:04.552Z,8.67
2019-04-05T00:21:44.941Z,8.55
2019-04-05T00:22:25.357Z,8.57
2019-04-05T00:23:05.775Z,8.61
2019-04-05T00:23:46.196Z,8.64
2019-04-05T00:24:26.626Z,8.57
2019-04-05T00:25:07.087Z,8.55
2019-04-05T00:25:47.457Z,8.5
2019-04-05T00:26:27.860Z,8.54
2019-04-05T00:27:08.272Z,8.34
2019-04-05T00:27:48.688Z,8.43
2019-04-05T00:28:29.107Z,8.45
2019-04-05T00:29:09.510Z,8.49
2019-04-05T00:29:49.917Z,8.42
2019-04-05T00:30:30.334Z,8.4
2019-04-05T00:31:10.761Z,8.39
2019-04-05T00:31:51.203Z,8.4
2019-04-05T00:32:31.614Z,8.34
2019-04-05T00:33:12.011Z,8.42
2019-04-05T00:33:52.447Z,8.36
2019-04-05T00:34:32.863Z,8.37
2019-04-05T00:35:13.322Z,8.37
2019-04-05T00:35:53.737Z,8.32
2019-04-05T00:36:34.140Z,8.39
2019-04-05T00:37:14.543Z,8.54
2019-04-05T00:37:54.949Z,8.6
2019-04-05T00:38:35.373Z,8.67
2019-04-05T00:39:15.803Z,8.73
2019-04-05T00:39:56.239Z,8.8
2019-04-05T00:40:36.674Z,8.83
2019-04-05T00:41:17.087Z,8.85
2019-04-05T00:41:57.498Z,8.75
2019-04-05T00:42:37.918Z,8.73
2019-04-05T00:43:18.328Z,8.73
2019-04-05T00:43:58.749Z,8.63
2019-04-05T00:44:39.191Z,8.58
2019-04-05T00:45:27.808Z,8.7
2019-04-05T00:45:59.985Z,8.6
2019-04-05T00:46:40.412Z,8.65
2019-04-05T00:47:20.821Z,8.58
2019-04-05T00:48:01.254Z,8.58
2019-04-05T00:48:41.697Z,8.6
2019-04-05T00:49:22.091Z,8.57
2019-04-05T00:50:02.525Z,8.61
2019-04-05T00:50:42.928Z,8.54
2019-04-05T00:51:23.342Z,8.55
2019-04-05T00:52:03.746Z,8.55
2019-04-05T00:52:44.170Z,8.47
2019-04-05T00:53:24.574Z,8.49
2019-04-05T00:54:04.956Z,8.5
2019-04-05T00:54:45.345Z,8.46
2019-04-05T00:55:25.766Z,8.43
2019-04-05T00:56:06.167Z,8.42
2019-04-05T00:56:46.634Z,8.37
2019-04-05T00:57:27.033Z,8.4
2019-04-05T00:58:07.429Z,8.4
2019-04-05T00:58:47.847Z,8.58
2019-04-05T00:59:28.293Z,8.57
2019-04-05T01:00:08.707Z,8.55
2019-04-05T01:00:49.076Z,8.61
2019-04-05T01:01:29.465Z,8.78
2019-04-05T01:02:09.846Z,8.83
2019-04-05T01:02:50.239Z,8.93
2019-04-05T01:03:30.638Z,8.85
2019-04-05T01:04:11.056Z,8.82
2019-04-05T01:04:51.453Z,8.7
2019-04-05T01:05:31.846Z,8.73
2019-04-05T01:06:12.236Z,8.75
2019-04-05T01:06:52.624Z,8.71
2019-04-05T01:07:33.029Z,8.75
2019-04-05T01:08:13.404Z,8.64
2019-04-05T01:08:53.846Z,8.58
2019-04-05T01:09:34.219Z,8.58
2019-04-05T01:10:14.704Z,8.63
2019-04-05T01:10:55.058Z,8.6
2019-04-05T01:11:35.449Z,8.57
2019-04-05T01:12:15.854Z,8.75
2019-04-05T01:12:56.308Z,8.63
2019-04-05T01:13:36.643Z,8.55
2019-04-05T01:14:17.031Z,8.65
2019-04-05T01:14:57.454Z,8.76
2019-04-05T01:15:40.932Z,8.78
2019-04-05T01:16:18.229Z,8.91
2019-04-05T01:16:58.626Z,8.94
2019-04-05T01:17:39.015Z,9.08
2019-04-05T01:18:19.414Z,9.06
2019-04-05T01:18:59.812Z,9.2
2019-04-05T01:19:40.224Z,9.17
2019-04-05T01:20:20.652Z,9.19
2019-04-05T01:21:01.085Z,9.1
2019-04-05T01:21:41.479Z,9.06
2019-04-05T01:22:21.916Z,8.94
2019-04-05T01:23:02.339Z,8.93
2019-04-05T01:23:42.790Z,8.89
2019-04-05T01:24:23.183Z,9.03
2019-04-05T01:25:03.618Z,9
2019-04-05T01:25:44.007Z,9.1
2019-04-05T01:26:24.412Z,9.19
2019-04-05T01:27:04.819Z,9.24
2019-04-05T01:27:48.131Z,9.4
2019-04-05T01:28:25.655Z,9.53
2019-04-05T01:29:06.065Z,9.62
2019-04-05T01:29:46.486Z,9.63
2019-04-05T01:30:26.905Z,9.63
2019-04-05T01:31:07.336Z,9.6
2019-04-05T01:31:47.739Z,9.65
2019-04-05T01:32:28.163Z,9.53
2019-04-05T01:33:08.607Z,9.45
2019-04-05T01:33:49.013Z,9.41
2019-04-05T01:34:29.488Z,9.41
2019-04-05T01:35:09.879Z,9.48
2019-04-05T01:35:50.273Z,9.52
2019-04-05T01:36:30.701Z,9.58
2019-04-05T01:37:11.113Z,9.7
2019-04-05T01:37:51.529Z,9.68
2019-04-05T01:38:31.948Z,9.73
2019-04-05T01:39:12.372Z,9.77
2019-04-05T01:39:52.805Z,9.8
2019-04-05T01:40:34.004Z,9.77
2019-04-05T01:41:14.435Z,9.81
2019-04-05T01:41:54.879Z,9.73
2019-04-05T01:42:35.308Z,9.75
2019-04-05T01:43:15.739Z,9.92
2019-04-05T01:43:56.132Z,9.93
2019-04-05T01:44:36.565Z,9.92
2019-04-05T01:45:17.001Z,9.96
2019-04-05T01:45:57.388Z,9.92
2019-04-05T01:46:37.816Z,9.93
2019-04-05T01:47:18.245Z,9.93
2019-04-05T01:47:58.646Z,9.99
2019-04-05T01:48:39.084Z,10.07
2019-04-05T01:49:19.468Z,9.96
2019-04-05T01:49:59.882Z,10.11
2019-04-05T01:50:40.305Z,10.13
2019-04-05T01:51:20.739Z,10.1
2019-04-05T01:52:01.139Z,10.24
2019-04-05T01:52:41.565Z,10.29
2019-04-05T01:53:21.995Z,10.28
2019-04-05T01:54:02.402Z,10.36
2019-04-05T01:54:42.816Z,10.32
2019-04-05T01:55:23.241Z,10.28
2019-04-05T01:56:03.655Z,10.32
2019-04-05T01:56:44.076Z,10.32
2019-04-05T01:57:24.543Z,10.28
2019-04-05T01:58:04.918Z,10.29
2019-04-05T01:58:45.332Z,10.25
2019-04-05T01:59:25.755Z,10.22
2019-04-05T02:00:06.168Z,10.2
2019-04-05T02:00:46.591Z,10.16
2019-04-05T02:01:27.026Z,10.13
2019-04-05T02:02:07.451Z,10.11
2019-04-05T02:02:47.869Z,10.16
2019-04-05T02:03:28.310Z,10.14
2019-04-05T02:04:08.748Z,10.2
2019-04-05T02:04:49.160Z,10.26
2019-04-05T02:05:29.579Z,10.18
2019-04-05T02:06:09.998Z,10.13
2019-04-05T02:06:50.420Z,9.98
2019-04-05T02:07:30.884Z,9.99
2019-04-05T02:08:11.303Z,10.07
2019-04-05T02:08:51.737Z,10.01
2019-04-05T02:09:32.159Z,9.91
2019-04-05T02:10:12.574Z,9.8
2019-04-05T02:10:53.010Z,9.74
2019-04-05T02:11:33.442Z,9.73
2019-04-05T02:12:13.873Z,9.62
2019-04-05T02:12:54.300Z,9.71
2019-04-05T02:13:34.724Z,9.68
2019-04-05T02:14:15.153Z,9.68
2019-04-05T02:14:55.600Z,9.7
2019-04-05T02:15:36.002Z,9.63
2019-04-05T02:16:16.412Z,9.7
2019-04-05T02:16:56.851Z,9.59
2019-04-05T02:17:37.268Z,9.53
2019-04-05T02:18:17.738Z,9.56
2019-04-05T02:18:58.114Z,9.56
2019-04-05T02:19:38.544Z,9.53
2019-04-05T02:20:18.945Z,9.6
2019-04-05T02:20:59.330Z,9.58
2019-04-05T02:21:39.700Z,9.68
2019-04-05T02:23:27.348Z,9.56
2019-04-05T02:24:07.586Z,9.42
2019-04-05T02:24:47.999Z,9.4
2019-04-05T02:25:28.417Z,9.34
2019-04-05T02:26:08.850Z,9.27
2019-04-05T02:26:49.243Z,9.32
2019-04-05T02:27:29.676Z,9.19
2019-04-05T02:28:10.089Z,9.23
2019-04-05T02:28:50.505Z,9.15
2019-04-05T02:29:30.906Z,9.19
2019-04-05T02:30:11.351Z,9.13
2019-04-05T02:30:51.752Z,9.17
2019-04-05T02:31:32.173Z,9.13
2019-04-05T02:32:12.608Z,9.08
2019-04-05T02:32:53.034Z,9.01
2019-04-05T02:33:33.460Z,8.89
2019-04-05T02:34:13.827Z,8.89
2019-04-05T02:34:54.205Z,8.89
2019-04-05T02:35:34.649Z,8.83
2019-04-05T02:36:15.106Z,8.79
2019-04-05T02:36:55.446Z,8.73
2019-04-05T02:37:35.872Z,8.71
2019-04-05T02:38:16.290Z,8.78
2019-04-05T02:38:56.718Z,8.85
2019-04-05T02:39:37.144Z,8.8
2019-04-05T02:40:17.576Z,9
2019-04-05T02:40:58.879Z,9.12
2019-04-05T02:41:38.428Z,9.22
2019-04-05T02:42:18.843Z,9.34
2019-04-05T02:42:59.279Z,9.38
2019-04-05T02:43:39.733Z,9.52
2019-04-05T02:44:20.136Z,9.63
2019-04-05T02:45:00.594Z,9.65
2019-04-05T02:45:40.985Z,9.67
2019-04-05T02:46:23.740Z,9.74
2019-04-05T02:47:01.836Z,9.8
2019-04-05T02:47:42.221Z,9.71
2019-04-05T02:48:22.630Z,9.63
2019-04-05T02:49:03.067Z,9.63
2019-04-05T02:49:43.529Z,9.62
2019-04-05T02:50:23.957Z,9.62
2019-04-05T02:51:04.378Z,9.5
2019-04-05T02:51:44.879Z,9.48
2019-04-05T02:52:25.256Z,9.42
2019-04-05T02:53:05.697Z,9.41
2019-04-05T02:53:46.116Z,9.3
2019-04-05T02:54:26.588Z,9.35
2019-04-05T02:55:06.998Z,9.35
2019-04-05T02:55:47.435Z,9.24
2019-04-05T02:56:27.844Z,9.24
2019-04-05T02:57:08.273Z,9.16
2019-04-05T02:57:48.701Z,9.16
2019-04-05T02:58:29.133Z,8.98
2019-04-05T02:59:09.554Z,9.08
2019-04-05T02:59:49.959Z,9.1
2019-04-05T03:00:30.361Z,8.86
2019-04-05T03:01:10.785Z,8.96
2019-04-05T03:01:51.195Z,8.91
2019-04-05T03:02:31.619Z,8.82
2019-04-05T03:03:12.045Z,8.76
2019-04-05T03:03:52.463Z,8.73
2019-04-05T03:04:32.891Z,8.64
2019-04-05T03:05:13.309Z,8.54
2019-04-05T03:05:53.724Z,8.5
2019-04-05T03:06:34.174Z,8.54
2019-04-05T03:07:14.537Z,8.6
2019-04-05T03:07:54.956Z,8.57
2019-04-05T03:08:35.383Z,8.65
2019-04-05T03:09:15.894Z,8.67
2019-04-05T03:09:56.226Z,8.76
2019-04-05T03:10:36.654Z,8.79
2019-04-05T03:11:17.058Z,8.89
2019-04-05T03:11:57.468Z,8.89
2019-04-05T03:12:37.881Z,8.98
2019-04-05T03:13:18.308Z,9.08
2019-04-05T03:13:58.730Z,9.16
2019-04-05T03:14:39.136Z,9.06
2019-04-05T03:15:19.567Z,9.15
2019-04-05T03:15:59.999Z,9.16
2019-04-05T03:16:41.767Z,9.23
2019-04-05T03:17:21.726Z,9.2
2019-04-05T03:18:02.143Z,9.17
2019-04-05T03:18:42.561Z,9.12
2019-04-05T03:19:22.999Z,9.2
2019-04-05T03:20:03.386Z,9.06
2019-04-05T03:20:43.835Z,9.19
2019-04-05T03:21:24.220Z,9.17
2019-04-05T03:22:04.682Z,9.1
2019-04-05T03:22:45.077Z,9.12
2019-04-05T03:23:25.482Z,9.04
2019-04-05T03:24:05.917Z,9.17
2019-04-05T03:24:46.335Z,9.17
2019-04-05T03:25:26.736Z,9.1
2019-04-05T03:26:07.150Z,9.03
2019-04-05T03:26:47.573Z,8.98
2019-04-05T03:27:27.979Z,8.94
2019-04-05T03:28:08.401Z,8.93
2019-04-05T03:28:48.834Z,8.76
2019-04-05T03:29:29.234Z,8.73
2019-04-05T03:30:09.658Z,8.73
2019-04-05T03:30:50.080Z,8.68
2019-04-05T03:31:30.511Z,8.6
2019-04-05T03:32:10.909Z,8.49
2019-04-05T03:32:51.336Z,8.47
2019-04-05T03:33:31.770Z,8.47
2019-04-05T03:34:12.178Z,8.49
2019-04-05T03:34:52.586Z,8.39
2019-04-05T03:35:33.022Z,8.4
2019-04-05T03:36:13.440Z,8.37
2019-04-05T03:36:53.845Z,8.42
2019-04-05T03:37:34.260Z,8.39
2019-04-05T03:38:14.659Z,8.42
2019-04-05T03:38:55.076Z,8.5
2019-04-05T03:39:35.501Z,8.46
2019-04-05T03:40:15.983Z,8.52
2019-04-05T03:40:56.299Z,8.5
2019-04-05T03:41:36.712Z,8.54
2019-04-05T03:42:17.145Z,8.6
2019-04-05T03:42:57.566Z,8.64
2019-04-05T03:43:38.000Z,8.68
2019-04-05T03:44:22.582Z,8.68
2019-04-05T03:44:58.866Z,8.78
2019-04-05T03:45:39.285Z,8.71
2019-04-05T03:46:19.706Z,8.79
2019-04-05T03:47:00.124Z,8.8
2019-04-05T03:47:40.539Z,8.93
2019-04-05T03:48:20.994Z,8.93
2019-04-05T03:49:01.393Z,8.96
2019-04-05T03:49:41.789Z,8.98
2019-04-05T03:50:22.228Z,9.13
2019-04-05T03:51:02.638Z,9.12
2019-04-05T03:51:43.075Z,9.01
2019-04-05T03:52:23.494Z,9.08
2019-04-05T03:53:03.912Z,9.08
2019-04-05T03:53:44.355Z,9.12
2019-04-05T03:54:24.772Z,9.13
2019-04-05T03:55:05.272Z,9.08
2019-04-05T03:55:45.670Z,9.1
2019-04-05T03:56:26.127Z,9.15
2019-04-05T03:57:06.520Z,9.17
2019-04-05T03:59:04.195Z,9.17
2019-04-05T03:59:45.251Z,9.16
2019-04-05T04:00:25.656Z,9.06
2019-04-05T04:01:06.080Z,9.12
2019-04-05T04:01:46.514Z,8.96
2019-04-05T04:02:26.950Z,8.98
2019-04-05T04:03:07.317Z,8.91
2019-04-05T04:03:47.744Z,8.93
2019-04-05T04:04:28.187Z,8.78
2019-04-05T04:05:08.606Z,8.76
2019-04-05T04:05:49.019Z,8.75
2019-04-05T04:06:29.410Z,8.75
2019-04-05T04:07:09.799Z,8.71
2019-04-05T04:07:50.207Z,8.75
2019-04-05T04:08:30.629Z,8.71
2019-04-05T04:09:11.058Z,8.79
2019-04-05T04:09:51.470Z,8.78
2019-04-05T04:10:31.909Z,8.75
2019-04-05T04:11:12.679Z,8.78
2019-04-05T04:11:53.111Z,8.76
2019-04-05T04:12:33.524Z,8.68
2019-04-05T04:13:13.937Z,8.64
2019-04-05T04:13:54.373Z,8.58
2019-04-05T04:14:34.778Z,8.6
2019-04-05T04:16:32.662Z,8.49
2019-04-05T04:17:13.770Z,8.52
2019-04-05T04:17:54.093Z,8.47
2019-04-05T04:18:34.493Z,8.46
2019-04-05T04:19:14.915Z,8.42
2019-04-05T04:19:56.028Z,8.4
2019-04-05T04:20:36.400Z,8.36
2019-04-05T04:21:16.789Z,8.45
2019-04-05T04:21:57.230Z,8.34
2019-04-05T04:22:37.600Z,8.43
2019-04-05T04:23:18.013Z,8.47
2019-04-05T04:23:58.443Z,8.46
2019-04-05T04:24:38.848Z,8.52
2019-04-05T04:25:19.305Z,8.37
2019-04-05T04:25:59.709Z,8.4
2019-04-05T04:26:40.077Z,8.34
2019-04-05T04:27:20.489Z,8.37
2019-04-05T04:28:00.923Z,8.28
2019-04-05T04:28:41.321Z,8.29
2019-04-05T05:06:29.801Z,6.42
2019-04-05T05:07:10.378Z,6.48
2019-04-05T05:07:50.741Z,6.42
2019-04-05T05:08:31.148Z,6.46
2019-04-05T05:09:11.586Z,6.65
2019-04-05T05:09:51.962Z,6.86
2019-04-05T05:10:32.362Z,6.99
2019-04-05T05:11:14.597Z,7.16
2019-04-05T05:11:53.120Z,7.15
2019-04-05T05:12:33.550Z,7.24
2019-04-05T05:13:13.882Z,7.36
2019-04-05T05:13:54.339Z,7.45
2019-04-05T05:14:34.767Z,7.54
2019-04-05T05:15:15.109Z,7.47
2019-04-05T05:15:55.837Z,7.48
2019-04-05T05:16:36.282Z,7.48
2019-04-05T05:17:16.796Z,7.55
2019-04-05T05:17:58.691Z,7.58
2019-04-05T05:18:37.926Z,7.57
2019-04-05T05:19:18.413Z,7.74
2019-04-05T05:19:58.763Z,7.79
2019-04-05T05:20:39.207Z,7.86
2019-04-05T05:21:19.636Z,7.81
2019-04-05T05:22:00.170Z,7.95
2019-04-05T05:22:40.567Z,7.94
2019-04-05T05:23:21.002Z,7.99
2019-04-05T05:24:01.337Z,7.99
2019-04-05T05:24:41.745Z,7.89
2019-04-05T05:25:22.189Z,8.03
2019-04-05T05:26:02.522Z,8.09
2019-04-05T05:26:42.933Z,8.13
2019-04-05T05:27:23.409Z,8.31
2019-04-05T05:28:03.864Z,8.36
2019-04-05T05:28:44.279Z,8.45
2019-04-05T05:29:24.693Z,8.58
2019-04-05T05:30:05.117Z,8.68
2019-04-05T05:30:45.532Z,8.67
2019-04-05T05:31:26.011Z,8.79
2019-04-05T05:32:09.413Z,8.94
2019-04-05T05:32:46.785Z,9.15
2019-04-05T05:33:27.195Z,9.12
2019-04-05T05:34:07.663Z,9.12
2019-04-05T05:35:01.095Z,9.23
2019-04-05T05:35:28.486Z,9.26
2019-04-05T05:36:10.450Z,9.34
2019-04-05T05:36:49.301Z,9.38
2019-04-05T05:37:32.628Z,9.34
2019-04-05T05:38:10.110Z,9.3
2019-04-05T05:38:50.778Z,9.26
2019-04-05T05:39:31.359Z,9.2
2019-04-05T05:40:11.633Z,9.26
2019-04-05T05:40:52.047Z,9.2
2019-04-05T05:41:32.453Z,9.26
2019-04-05T05:42:13.520Z,9.22
2019-04-05T05:44:12.364Z,9.08
2019-04-05T05:44:52.688Z,8.89
2019-04-05T05:45:33.128Z,8.96
2019-04-05T05:46:14.857Z,8.89
2019-04-05T05:46:55.121Z,8.75
2019-04-05T05:47:35.545Z,8.75
2019-04-05T05:48:16.779Z,8.75
2019-04-05T05:48:56.792Z,8.75
2019-04-05T05:49:37.382Z,8.55
2019-04-05T05:50:17.722Z,8.67
2019-04-05T05:50:58.088Z,8.58
2019-04-05T05:51:38.667Z,8.68
2019-04-05T05:52:19.577Z,8.71
2019-04-05T05:53:00.271Z,8.82
2019-04-05T05:53:40.617Z,8.82
2019-04-05T05:54:21.041Z,8.76
2019-04-05T05:55:01.495Z,8.75
2019-04-05T05:55:41.853Z,8.73
2019-04-05T05:56:22.243Z,8.67
2019-04-05T05:57:02.680Z,8.68
2019-04-05T05:57:43.197Z,8.67
2019-04-05T05:58:25.677Z,8.54
2019-04-05T05:59:03.936Z,8.55
2019-04-05T06:02:14.874Z,8.4
2019-04-05T06:02:55.153Z,8.45
2019-04-05T06:03:35.564Z,8.39
2019-04-05T06:04:15.982Z,8.37
2019-04-05T06:04:56.398Z,8.46
2019-04-05T06:05:36.815Z,8.39
2019-04-05T06:06:17.210Z,8.34
2019-04-05T06:06:58.359Z,8.32
2019-04-05T06:07:38.747Z,8.28
2019-04-05T06:08:19.202Z,8.31
2019-04-05T06:08:59.597Z,8.36
2019-04-05T06:09:39.989Z,8.45
2019-04-05T06:10:20.411Z,8.43
2019-04-05T06:11:00.832Z,8.47
2019-04-05T06:11:41.331Z,8.63
2019-04-05T06:12:21.743Z,8.57
2019-04-05T06:13:02.129Z,8.57
2019-04-05T06:13:42.542Z,8.54
2019-04-05T06:14:22.995Z,8.5
2019-04-05T06:15:03.443Z,8.47
2019-04-05T06:15:43.888Z,8.43
2019-04-05T06:16:24.276Z,8.55
2019-04-05T06:17:05.120Z,8.58
2019-04-05T06:17:45.537Z,8.54
2019-04-05T06:18:25.945Z,8.54
2019-04-05T06:19:06.366Z,8.55
2019-04-05T06:19:46.823Z,8.58
2019-04-05T06:20:27.957Z,8.64
2019-04-05T06:21:07.903Z,8.76
2019-04-05T06:21:48.458Z,8.88
2019-04-05T06:22:30.065Z,9
2019-04-05T06:23:10.410Z,9.08
2019-04-05T06:23:50.760Z,9.13
2019-04-05T06:24:35.665Z,9.22
2019-04-05T06:25:16.201Z,9.26
2019-04-05T06:25:56.555Z,9.31
2019-04-05T06:26:36.983Z,9.32
2019-04-05T06:27:17.447Z,9.41
2019-04-05T06:27:59.759Z,9.52
2019-04-05T06:28:38.444Z,9.6
2019-04-05T06:29:18.853Z,9.62
2019-04-05T06:29:59.296Z,9.81
2019-04-05T06:30:40.612Z,10.06
2019-04-05T06:31:21.449Z,10.29
2019-04-05T06:32:01.404Z,10.46
2019-04-05T06:32:41.846Z,10.75
2019-04-05T06:33:31.176Z,10.98
2019-04-05T06:34:02.803Z,11.12
2019-04-05T06:34:43.151Z,11.35
2019-04-05T06:35:23.630Z,11.64
2019-04-05T06:36:04.064Z,11.98
2019-04-05T06:36:44.474Z,12.13
2019-04-05T06:37:24.907Z,12.33
2019-04-05T06:38:05.317Z,12.58
2019-04-05T06:38:46.574Z,12.79
2019-04-05T06:39:26.995Z,13.04
2019-04-05T06:40:07.427Z,13.03
2019-04-05T06:40:47.818Z,13.12
2019-04-05T06:41:28.235Z,13.04
2019-04-05T06:42:08.649Z,13.16
2019-04-05T06:42:49.079Z,13.17
2019-04-05T06:43:29.535Z,13.19
2019-04-05T06:44:09.938Z,13.12
2019-04-05T06:44:50.359Z,13.24
2019-04-05T06:45:30.805Z,13.25
2019-04-05T06:46:11.243Z,13.22
2019-04-05T06:46:51.664Z,13.25
2019-04-05T06:47:32.092Z,13.27
2019-04-05T06:48:18.785Z,13.35
2019-04-05T06:48:52.874Z,13.48
2019-04-05T06:50:32.070Z,13.57
2019-04-05T06:51:14.162Z,13.69
2019-04-05T06:51:55.118Z,13.71
2019-04-05T06:52:35.518Z,13.72
2019-04-05T06:53:15.945Z,13.72
2019-04-05T06:53:56.370Z,13.79
2019-04-05T06:54:36.779Z,13.88
2019-04-05T06:55:17.240Z,13.93
2019-04-05T06:55:59.676Z,14.01
2019-04-05T06:56:38.034Z,14.11
2019-04-05T06:57:18.495Z,14.09
2019-04-05T06:57:58.905Z,14.11
2019-04-05T06:58:39.304Z,14.21
2019-04-05T06:59:19.746Z,14.12
2019-04-05T07:00:00.162Z,14.01
2019-04-05T07:00:40.622Z,13.98
2019-04-05T07:01:21.053Z,13.88
2019-04-05T07:02:01.509Z,13.9
2019-04-05T07:02:41.953Z,13.8
2019-04-05T07:03:22.362Z,13.75
2019-04-05T07:04:02.733Z,13.72
2019-04-05T07:04:43.162Z,13.66
2019-04-05T07:05:23.639Z,13.68
2019-04-05T07:06:04.025Z,13.69
2019-04-05T07:06:44.472Z,13.63
2019-04-05T07:07:24.858Z,13.73
2019-04-05T07:08:05.320Z,13.61
2019-04-05T07:08:53.372Z,13.61
2019-04-05T07:09:26.196Z,13.53
2019-04-05T07:10:06.589Z,13.48
2019-04-05T07:10:47.924Z,13.47
2019-04-05T07:11:28.784Z,13.48
2019-04-05T07:12:09.216Z,13.44
2019-04-05T07:14:03.618Z,13.31
2019-04-05T07:14:44.054Z,13.57
2019-04-05T07:15:24.913Z,13.63
2019-04-05T07:16:05.416Z,13.96
2019-04-05T07:16:45.824Z,13.96
2019-04-05T07:17:26.272Z,14.06
2019-04-05T07:18:06.834Z,14.27
2019-04-05T07:18:47.333Z,14.3
2019-04-05T07:19:27.746Z,14.42
2019-04-05T07:20:08.335Z,14.61
2019-04-05T07:20:49.090Z,14.78
2019-04-05T07:21:29.522Z,15.04
2019-04-05T07:22:10.027Z,15.13
2019-04-05T07:22:50.464Z,15.3
2019-04-05T07:23:31.471Z,15.34
2019-04-05T07:24:11.525Z,15.37
2019-04-05T07:24:51.967Z,15.56
2019-04-05T07:25:32.587Z,15.66
2019-04-05T07:26:13.063Z,15.78
2019-04-05T07:26:53.677Z,15.86
2019-04-05T07:27:34.131Z,15.96
2019-04-05T07:28:14.520Z,15.92
2019-04-05T07:30:12.181Z,15.89
2019-04-05T07:30:53.841Z,16.14
2019-04-05T07:31:33.450Z,16.08
2019-04-05T07:32:14.809Z,16.1
2019-04-05T07:32:54.541Z,16.27
2019-04-05T07:33:34.961Z,16.26
2019-04-05T07:34:15.439Z,16.25
2019-04-05T07:34:55.927Z,16.17
2019-04-05T07:35:36.837Z,16.25
2019-04-05T07:36:17.087Z,16.27
2019-04-05T07:36:57.590Z,16.08
2019-04-05T07:37:38.030Z,16.07
2019-04-05T07:38:18.521Z,16.08
2019-04-05T07:38:59.113Z,16.14
2019-04-05T07:39:39.779Z,16.3
2019-04-05T07:40:19.982Z,16.47
2019-04-05T07:41:00.392Z,16.45
2019-04-05T07:41:40.997Z,16.55
2019-04-05T07:42:21.490Z,16.67
2019-04-05T07:43:01.915Z,16.7
2019-04-05T07:43:42.314Z,16.62
2019-04-05T07:44:22.762Z,16.62
2019-04-05T07:45:03.208Z,16.65
2019-04-05T07:45:45.829Z,16.8
2019-04-05T07:46:23.985Z,16.8
2019-04-05T07:47:04.386Z,16.77
2019-04-05T07:47:44.772Z,16.78
2019-04-05T07:48:25.185Z,16.8
2019-04-05T07:49:05.605Z,16.92
2019-04-05T07:49:46.028Z,17.1
2019-04-05T07:50:26.415Z,17.12
2019-04-05T07:51:07.544Z,17.3
2019-04-05T07:51:47.961Z,17.43
2019-04-05T07:52:28.378Z,17.57
2019-04-05T07:53:08.843Z,17.57
2019-04-05T07:53:49.251Z,17.7
2019-04-05T07:54:29.715Z,17.66
2019-04-05T07:55:10.149Z,17.65
2019-04-05T07:55:50.544Z,17.66
2019-04-05T07:56:30.987Z,17.84
2019-04-05T07:57:11.409Z,18.04
2019-04-05T07:57:51.889Z,18.17
2019-04-05T07:58:32.311Z,18.28
2019-04-05T07:59:12.712Z,18.28
2019-04-05T07:59:53.156Z,18.28
2019-04-05T08:00:33.576Z,18.11
2019-04-05T08:01:14.027Z,18.04
2019-04-05T08:01:54.406Z,17.94
2019-04-05T08:02:34.825Z,18.01
2019-04-05T08:03:15.287Z,18.01
2019-04-05T08:03:57.984Z,18.04
2019-04-05T08:04:36.106Z,18.02
2019-04-05T08:05:16.545Z,18.21
2019-04-05T08:05:57.025Z,18.28
2019-04-05T08:06:37.422Z,18.31
2019-04-05T08:07:18.045Z,18.49
2019-04-05T08:07:58.817Z,18.57
2019-04-05T08:08:39.179Z,18.6
2019-04-05T08:09:19.640Z,18.64
2019-04-05T08:10:02.848Z,18.74
2019-04-05T08:10:40.483Z,18.82
2019-04-05T08:11:20.950Z,18.76
2019-04-05T08:12:01.400Z,18.72
2019-04-05T08:12:41.871Z,18.68
2019-04-05T08:13:22.273Z,18.59
2019-04-05T08:14:02.762Z,18.54
2019-04-05T08:14:43.177Z,18.59
2019-04-05T08:15:23.609Z,18.47
2019-04-05T08:16:04.385Z,18.59
2019-04-05T08:16:44.752Z,18.84
2019-04-05T08:17:25.815Z,19.02
2019-04-05T08:18:05.695Z,19.15
2019-04-05T08:18:56.912Z,19.13
2019-04-05T08:19:27.945Z,19.35
2019-04-05T08:20:08.832Z,19.47
2019-04-05T08:20:49.844Z,19.52
2019-04-05T08:21:30.426Z,19.6
2019-04-05T08:22:10.365Z,19.97
2019-04-05T08:22:51.167Z,20.04
2019-04-05T08:23:31.772Z,20.05
2019-04-05T08:24:12.148Z,20.04
2019-04-05T08:24:52.638Z,20.08
2019-04-05T08:25:33.053Z,20.1
2019-04-05T08:26:13.523Z,20.13
2019-04-05T08:26:53.906Z,20.12
2019-04-05T08:27:34.299Z,20.19
2019-04-05T08:28:15.312Z,20.3
2019-04-05T08:28:55.332Z,20.4
2019-04-05T08:29:35.782Z,20.5
2019-04-05T08:30:16.200Z,20.4
2019-04-05T08:30:56.697Z,20.5
2019-04-05T08:31:37.595Z,20.48
2019-04-05T08:32:18.051Z,20.44
2019-04-05T08:32:58.476Z,20.1
2019-04-05T08:33:38.911Z,19.98
2019-04-05T08:34:19.395Z,20.07
2019-04-05T08:34:59.736Z,19.98
2019-04-05T08:35:40.215Z,19.97
2019-04-05T08:36:20.799Z,19.79
2019-04-05T08:37:01.183Z,19.9
2019-04-05T08:37:41.695Z,19.8
2019-04-05T08:38:22.214Z,19.87
2019-04-05T08:39:03.342Z,19.79
2019-04-05T08:39:43.885Z,19.72
2019-04-05T08:40:24.369Z,19.72
2019-04-05T08:41:05.583Z,19.89
2019-04-05T08:41:48.942Z,20.07
2019-04-05T08:42:29.007Z,20.08
2019-04-05T08:43:09.400Z,20.27
2019-04-05T08:43:49.904Z,20.38
2019-04-05T08:44:30.383Z,20.34
2019-04-05T08:45:10.768Z,20.3
2019-04-05T08:45:51.258Z,20.12
2019-04-05T08:46:31.770Z,19.82
2019-04-05T08:47:12.354Z,19.46
2019-04-05T08:47:52.828Z,19.13
2019-04-05T08:48:33.908Z,19.05
2019-04-05T08:49:14.408Z,19.09
2019-04-05T08:49:54.830Z,19.24
2019-04-05T08:50:35.245Z,19.38
2019-04-05T08:51:15.893Z,19.65
2019-04-05T08:51:56.374Z,19.57
2019-04-05T08:52:36.785Z,19.62
2019-04-05T08:53:17.245Z,19.78
2019-04-05T08:53:57.865Z,19.72
2019-04-05T08:54:38.332Z,19.64
2019-04-05T08:55:18.778Z,19.85
2019-04-05T08:55:59.197Z,19.94
2019-04-05T08:56:40.475Z,20.08
2019-04-05T08:57:20.881Z,20.08
2019-04-05T08:58:01.322Z,19.9
2019-04-05T08:58:41.832Z,19.6
2019-04-05T08:59:23.831Z,19.46
2019-04-05T09:00:05.100Z,19.31
2019-04-05T09:00:46.914Z,19.35
2019-04-05T09:01:27.349Z,19.12
2019-04-05T09:02:07.795Z,19.01
2019-04-05T09:02:48.466Z,18.82
2019-04-05T09:03:29.246Z,18.35
2019-04-05T09:04:10.453Z,18.09
2019-04-05T09:04:50.829Z,17.94
2019-04-05T09:05:33.371Z,17.96
2019-04-05T09:06:12.861Z,18.16
2019-04-05T09:06:52.843Z,18.34
2019-04-05T09:07:33.541Z,18.57
2019-04-05T09:13:54.291Z,19.45
2019-04-05T09:16:59.329Z,17.49
2019-04-05T09:17:41.902Z,17.1
2019-04-05T09:18:22.551Z,16.96
2019-04-05T09:19:03.020Z,16.92
2019-04-05T09:19:43.636Z,17.21
2019-04-05T09:20:24.548Z,17.4
2019-04-05T09:21:05.543Z,17.58
2019-04-05T09:21:46.769Z,17.84
2019-04-05T09:22:27.066Z,17.99
2019-04-05T09:23:09.850Z,18.16
2019-04-05T09:23:50.368Z,18.23
2019-04-05T09:24:31.517Z,18.42
2019-04-05T09:25:12.456Z,18.32
2019-04-05T09:25:53.776Z,18.2
2019-04-05T09:26:33.535Z,18.2
2019-04-05T09:28:47.772Z,17.73
2019-04-05T09:29:29.108Z,17.58
2019-04-05T09:30:08.838Z,17.57
2019-04-05T09:30:51.588Z,17.65
2019-04-05T09:31:29.784Z,17.47
2019-04-05T09:32:10.179Z,17.4
2019-04-05T09:32:50.694Z,17.33
2019-04-05T09:33:33.115Z,17.14
2019-04-05T09:34:13.749Z,17
2019-04-05T09:34:54.251Z,17.03
2019-04-05T09:35:35.065Z,17
2019-04-05T09:36:15.473Z,16.9
2019-04-05T09:36:55.891Z,16.81
2019-04-05T09:37:36.329Z,16.81
2019-04-05T09:38:17.313Z,16.9
2019-04-05T09:38:57.740Z,17
2019-04-05T09:39:38.185Z,17.1
2019-04-05T09:40:21.221Z,17.14
2019-04-05T09:41:01.737Z,17.28
2019-04-05T09:41:43.170Z,17.32
2019-04-05T09:42:23.538Z,17.36
2019-04-05T09:43:03.957Z,17.51
2019-04-05T09:43:44.466Z,17.63
2019-04-05T09:44:24.877Z,17.71
2019-04-05T09:45:05.292Z,17.74
2019-04-05T09:45:45.739Z,17.91
2019-04-05T09:46:26.158Z,18.1
2019-04-05T09:47:07.347Z,18.16
2019-04-05T09:47:47.695Z,18.23
2019-04-05T09:48:28.086Z,18.31
2019-04-05T09:49:08.581Z,18.26
2019-04-05T09:49:49.010Z,18.29
2019-04-05T09:50:30.430Z,18.34
2019-04-05T09:51:10.996Z,18.36
2019-04-05T09:51:53.498Z,18.31